createdAt,value
2022-12-25T00:03:43.616Z,100890.16
2022-12-25T00:08:47.270Z,100882.53
2022-12-25T00:13:52.154Z,100888.56
2022-12-25T00:18:58.847Z,100888.06
2022-12-25T00:24:03.456Z,100879.84
2022-12-25T00:29:08.258Z,100866.03
2022-12-25T00:34:11.667Z,100864.75
2022-12-25T00:39:15.129Z,100877.19
2022-12-25T00:44:19.943Z,100912.47
2022-12-25T00:49:23.649Z,100912.84
2022-12-25T00:54:27.166Z,100923.69
2022-12-25T00:59:34.021Z,100928.28
2022-12-25T01:04:37.729Z,100921.44
2022-12-25T01:09:58.911Z,100918.03
2022-12-25T01:15:04.807Z,100913.69
2022-12-25T01:20:09.500Z,100906.31
2022-12-25T01:25:13.753Z,100918.69
2022-12-25T01:30:18.598Z,100915.78
2022-12-25T01:35:22.032Z,100909.78
2022-12-25T01:40:25.492Z,100914.47
2022-12-25T01:45:39.635Z,100907.41
2022-12-25T01:50:46.519Z,100921.03
2022-12-25T01:55:52.467Z,100921.44
2022-12-25T02:00:57.243Z,100907.59
2022-12-25T02:06:01.940Z,100921.59
2022-12-25T02:11:05.726Z,100926.13
2022-12-25T02:16:13.373Z,100943.41
2022-12-25T02:21:30.240Z,100942.31
2022-12-25T02:26:47.068Z,100929.63
2022-12-25T02:31:56.676Z,100931.34
2022-12-25T02:37:06.176Z,100944.34
2022-12-25T02:42:13.778Z,100946.25
2022-12-25T02:47:36.488Z,100937.75
2022-12-25T02:52:58.512Z,100923.41
2022-12-25T02:58:23.169Z,100920.81
2022-12-25T03:03:49.320Z,100908.34
2022-12-25T03:09:16.348Z,100917.66
2022-12-25T03:14:37.583Z,100908.47
2022-12-25T03:20:05.042Z,100905.59
2022-12-25T03:25:27.176Z,100906.88
2022-12-25T03:30:56.228Z,100907.94
2022-12-25T03:36:04.884Z,100908.81
2022-12-25T03:41:29.731Z,100905.00
2022-12-25T03:46:53.940Z,100906.91
2022-12-25T03:52:20.848Z,100916.00
2022-12-25T03:57:41.991Z,100904.91
2022-12-25T04:03:03.109Z,100911.56
2022-12-25T04:08:25.300Z,100913.88
2022-12-25T04:13:46.524Z,100897.16
2022-12-25T04:19:07.523Z,100896.09
2022-12-25T04:24:30.303Z,100902.69
2022-12-25T04:29:51.440Z,100899.28
2022-12-25T04:35:12.615Z,100888.41
2022-12-25T04:40:17.849Z,100884.91
2022-12-25T04:45:21.742Z,100884.25
2022-12-25T04:50:25.177Z,100870.91
2022-12-25T04:55:30.138Z,100858.81
2022-12-25T05:00:33.730Z,100873.47
2022-12-25T05:05:40.597Z,100878.06
2022-12-25T05:10:45.663Z,100864.72
2022-12-25T05:15:49.213Z,100862.84
2022-12-25T05:20:54.010Z,100856.78
2022-12-25T05:25:59.640Z,100857.84
2022-12-25T05:31:03.529Z,100854.47
2022-12-25T05:36:09.142Z,100850.91
2022-12-25T05:41:14.186Z,100844.00
2022-12-25T05:46:17.832Z,100837.59
2022-12-25T05:51:21.442Z,100840.41
2022-12-25T05:56:26.232Z,100840.91
2022-12-25T06:01:29.956Z,100832.53
2022-12-25T06:06:33.546Z,100835.06
2022-12-25T06:11:38.530Z,100823.88
2022-12-25T06:16:42.444Z,100829.19
2022-12-25T06:21:46.046Z,100821.91
2022-12-25T06:26:51.051Z,100826.75
2022-12-25T06:31:57.265Z,100815.31
2022-12-25T06:37:01.113Z,100824.16
2022-12-25T06:42:06.073Z,100817.91
2022-12-25T06:47:09.798Z,100813.59
2022-12-25T06:52:13.319Z,100813.50
2022-12-25T06:57:18.913Z,100805.16
2022-12-25T07:02:23.974Z,100793.44
2022-12-25T07:07:27.543Z,100802.72
2022-12-25T07:12:32.656Z,100797.28
2022-12-25T07:17:36.673Z,100801.78
2022-12-25T07:22:40.113Z,100817.22
2022-12-25T07:27:44.953Z,100819.28
2022-12-25T07:32:50.346Z,100814.69
2022-12-25T07:37:54.502Z,100805.53
2022-12-25T07:42:59.439Z,100814.44
2022-12-25T07:48:05.805Z,100804.53
2022-12-25T07:53:10.973Z,100790.66
2022-12-25T07:58:19.947Z,100778.22
2022-12-25T08:03:26.828Z,100758.03
2022-12-25T08:08:30.543Z,100749.84
2022-12-25T08:13:35.828Z,100745.38
2022-12-25T08:18:40.049Z,100748.78
2022-12-25T08:23:45.376Z,100753.59
2022-12-25T08:28:50.765Z,100766.06
2022-12-25T08:33:56.723Z,100768.47
2022-12-25T08:39:03.099Z,100778.13
2022-12-25T08:44:08.824Z,100777.28
2022-12-25T08:49:12.319Z,100793.81
2022-12-25T08:54:15.853Z,100797.88
2022-12-25T08:59:20.841Z,100795.94
2022-12-25T09:04:24.311Z,100796.81
2022-12-25T09:09:28.532Z,100781.03
2022-12-25T09:14:33.462Z,100768.25
2022-12-25T09:19:36.903Z,100754.19
2022-12-25T09:24:40.340Z,100744.75
2022-12-25T09:29:45.304Z,100762.06
2022-12-25T09:34:48.772Z,100779.78
2022-12-25T09:39:52.265Z,100773.97
2022-12-25T09:45:00.168Z,100774.81
2022-12-25T09:50:08.984Z,100768.34
2022-12-25T09:55:19.772Z,100748.31
2022-12-25T10:00:26.879Z,100766.34
2022-12-25T10:05:51.113Z,100762.88
2022-12-25T10:11:01.749Z,100740.56
2022-12-25T10:16:12.584Z,100708.88
2022-12-25T10:21:18.198Z,100690.81
2022-12-25T10:26:25.117Z,100674.97
2022-12-25T10:31:31.533Z,100678.22
2022-12-25T10:36:35.074Z,100678.09
2022-12-25T10:41:54.690Z,100683.97
2022-12-25T10:47:00.819Z,100678.66
2022-12-25T10:52:05.678Z,100660.69
2022-12-25T10:57:16.207Z,100679.50
2022-12-25T11:02:25.796Z,100694.94
2022-12-25T11:07:29.503Z,100698.63
2022-12-25T11:12:36.272Z,100689.91
2022-12-25T11:17:49.715Z,100689.31
2022-12-25T11:22:53.626Z,100669.81
2022-12-25T11:28:01.935Z,100664.19
2022-12-25T11:33:08.882Z,100656.75
2022-12-25T11:38:12.351Z,100666.00
2022-12-25T11:43:18.407Z,100674.59
2022-12-25T11:48:27.489Z,100657.84
2022-12-25T11:53:32.975Z,100648.47
2022-12-25T11:58:39.623Z,100622.16
2022-12-25T12:03:46.068Z,100607.44
2022-12-25T12:08:52.734Z,100591.56
2022-12-25T12:14:16.490Z,100591.28
2022-12-25T12:19:27.972Z,100575.41
2022-12-25T12:24:35.294Z,100568.28
2022-12-25T12:29:42.061Z,100563.84
2022-12-25T12:34:50.138Z,100554.13
2022-12-25T12:39:55.416Z,100556.00
2022-12-25T12:45:08.519Z,100547.31
2022-12-25T12:50:30.060Z,100535.94
2022-12-25T12:55:35.119Z,100525.97
2022-12-25T13:00:42.199Z,100516.44
2022-12-25T13:05:50.793Z,100508.28
2022-12-25T13:11:05.365Z,100498.31
2022-12-25T13:16:16.174Z,100497.03
2022-12-25T13:21:24.332Z,100506.69
2022-12-25T13:26:28.389Z,100502.66
2022-12-25T13:31:32.336Z,100503.81
2022-12-25T13:36:40.205Z,100489.47
2022-12-25T13:42:03.395Z,100478.78
2022-12-25T13:47:17.145Z,100465.38
2022-12-25T13:52:25.511Z,100439.53
2022-12-25T13:57:31.891Z,100438.28
2022-12-25T14:02:38.817Z,100440.22
2022-12-25T14:07:43.908Z,100423.31
2022-12-25T14:12:49.461Z,100410.06
2022-12-25T14:17:53.464Z,100400.31
2022-12-25T14:23:00.699Z,100387.41
2022-12-25T14:28:07.349Z,100364.75
2022-12-25T14:33:13.990Z,100345.38
2022-12-25T14:38:24.079Z,100353.53
2022-12-25T14:43:28.865Z,100372.06
2022-12-25T14:48:33.636Z,100378.13
2022-12-25T14:53:41.214Z,100371.94
2022-12-25T14:58:48.528Z,100371.06
2022-12-25T15:03:52.222Z,100355.47
2022-12-25T15:08:58.680Z,100352.34
2022-12-25T15:14:02.078Z,100341.47
2022-12-25T15:19:07.686Z,100333.06
2022-12-25T15:24:13.677Z,100343.34
2022-12-25T15:29:27.583Z,100344.78
2022-12-25T15:34:40.647Z,100343.13
2022-12-25T15:39:46.049Z,100327.94
2022-12-25T15:44:49.529Z,100316.38
2022-12-25T15:49:53.125Z,100315.75
2022-12-25T15:54:57.934Z,100304.66
2022-12-25T16:00:01.419Z,100294.28
2022-12-25T16:05:15.240Z,100288.88
2022-12-25T16:10:22.622Z,100294.00
2022-12-25T16:15:25.928Z,100296.75
2022-12-25T16:20:29.716Z,100290.84
2022-12-25T16:25:34.592Z,100284.22
2022-12-25T16:30:38.760Z,100267.63
2022-12-25T16:35:42.175Z,100274.78
2022-12-25T16:40:48.963Z,100255.13
2022-12-25T16:45:52.531Z,100245.56
2022-12-25T16:50:56.064Z,100257.28
2022-12-25T16:56:07.852Z,100226.19
2022-12-25T17:01:12.688Z,100230.75
2022-12-25T17:06:16.690Z,100221.91
2022-12-25T17:11:26.178Z,100217.25
2022-12-25T17:16:31.040Z,100194.78
2022-12-25T17:21:35.364Z,100196.78
2022-12-25T17:26:41.459Z,100202.28
2022-12-25T17:31:45.083Z,100194.22
2022-12-25T17:36:48.633Z,100183.16
2022-12-25T17:41:53.415Z,100178.03
2022-12-25T17:46:56.838Z,100159.09
2022-12-25T17:52:00.373Z,100152.34
2022-12-25T17:57:05.185Z,100140.38
2022-12-25T18:02:10.161Z,100149.63
2022-12-25T18:07:14.032Z,100143.59
2022-12-25T18:12:18.788Z,100129.81
2022-12-25T18:17:22.250Z,100130.97
2022-12-25T18:22:25.607Z,100131.63
2022-12-25T18:27:30.400Z,100124.38
2022-12-25T18:32:33.830Z,100111.53
2022-12-25T18:37:40.146Z,100107.09
2022-12-25T18:42:46.508Z,100096.31
2022-12-25T18:47:49.893Z,100106.22
2022-12-25T18:52:53.495Z,100102.69
2022-12-25T18:57:59.271Z,100108.53
2022-12-25T19:03:02.770Z,100102.41
2022-12-25T19:08:06.654Z,100106.19
2022-12-25T19:13:11.460Z,100103.75
2022-12-25T19:18:14.838Z,100092.00
2022-12-25T19:23:18.240Z,100103.47
2022-12-25T19:28:24.972Z,100076.19
2022-12-25T19:33:28.471Z,100083.06
2022-12-25T19:38:31.873Z,100080.16
2022-12-25T19:43:37.843Z,100067.81
2022-12-25T19:48:41.265Z,100071.09
2022-12-25T19:53:44.976Z,100062.09
2022-12-25T19:58:49.886Z,100065.41
2022-12-25T20:03:53.549Z,100054.13
2022-12-25T20:08:58.967Z,100053.38
2022-12-25T20:14:03.988Z,100051.06
2022-12-25T20:19:07.740Z,100057.47
2022-12-25T20:24:11.482Z,100060.34
2022-12-25T20:29:16.328Z,100051.66
2022-12-25T20:34:19.741Z,100063.75
2022-12-25T20:39:23.195Z,100060.63
2022-12-25T20:44:27.985Z,100061.31
2022-12-25T20:49:32.529Z,100078.78
2022-12-25T20:54:36.325Z,100071.16
2022-12-25T20:59:43.345Z,100083.59
2022-12-25T21:04:52.354Z,100085.53
2022-12-25T21:09:57.737Z,100089.97
2022-12-25T21:15:02.486Z,100090.34
2022-12-25T21:20:08.264Z,100100.81
2022-12-25T21:25:11.641Z,100094.44
2022-12-25T21:30:16.490Z,100096.22
2022-12-25T21:35:19.972Z,100101.94
2022-12-25T21:40:23.530Z,100110.47
2022-12-25T21:45:28.706Z,100094.25
2022-12-25T21:50:51.934Z,100096.25
2022-12-25T21:56:00.457Z,100089.44
2022-12-25T22:01:05.499Z,100081.69
2022-12-25T22:06:26.732Z,100087.13
2022-12-25T22:11:47.912Z,100089.63
2022-12-25T22:17:10.435Z,100078.56
2022-12-25T22:22:13.876Z,100084.66
2022-12-25T22:27:17.835Z,100093.34
2022-12-25T22:32:23.700Z,100111.22
2022-12-25T22:37:27.194Z,100106.38
2022-12-25T22:42:30.644Z,100112.88
2022-12-25T22:47:35.481Z,100124.03
2022-12-25T22:52:39.169Z,100123.78
2022-12-25T22:57:42.541Z,100132.97
2022-12-25T23:02:47.618Z,100127.94
2022-12-25T23:07:51.262Z,100132.09
2022-12-25T23:13:12.389Z,100111.28
2022-12-25T23:18:34.739Z,100126.16
2022-12-25T23:23:55.830Z,100126.53
2022-12-25T23:29:16.954Z,100117.72
2022-12-25T23:34:22.458Z,100139.06
2022-12-25T23:39:25.894Z,100128.09
2022-12-25T23:44:29.849Z,100116.97
2022-12-25T23:49:34.556Z,100128.97
2022-12-25T23:54:38.041Z,100121.00
2022-12-25T23:59:41.508Z,100119.59
